Terminal Aerodrome Forecast
Issued by NWS Tampa Bay Area, FL

Home | Current Version | Previous Version | Text Only | Print | Product List | Glossary Off
Versions: 1 2 3 4 5 6 7 8 9 10 11 12 13 14

000
FTUS42 KTBW 142300
TAFSRQ
TAF
KSRQ 142331Z 1500/1524 20007KT P6SM BKN080
     FM150200 VRB04KT P6SM FEW080 BKN100
     FM151500 13006KT P6SM VCTS SCT035CB SCT250
     FM151800 22007KT P6SM VCTS SCT035CB BKN250=

USA.gov is the U.S. government's official web portal to all federal, state and local government web resources and services.